sensor_id;sensor_type;location;lat;lon;timestamp;P1;durP1;ratioP1;P2;durP2;ratioP2
1471;SDS011;963;42.644;23.336;2023-06-10T00:01:23;12.80;;;9.17;;
1471;SDS011;963;42.644;23.336;2023-06-10T00:03:49;10.47;;;9.47;;
1471;SDS011;963;42.644;23.336;2023-06-10T00:06:15;11.97;;;10.60;;
1471;SDS011;963;42.644;23.336;2023-06-10T00:08:40;13.10;;;10.27;;
1471;SDS011;963;42.644;23.336;2023-06-10T00:11:06;12.43;;;10.20;;
1471;SDS011;963;42.644;23.336;2023-06-10T00:13:31;12.30;;;10.77;;
1471;SDS011;963;42.644;23.336;2023-06-10T00:15:57;13.80;;;11.53;;
1471;SDS011;963;42.644;23.336;2023-06-10T00:18:22;12.50;;;10.70;;
1471;SDS011;963;42.644;23.336;2023-06-10T00:20:48;12.70;;;10.60;;
1471;SDS011;963;42.644;23.336;2023-06-10T00:23:17;13.07;;;11.40;;
1471;SDS011;963;42.644;23.336;2023-06-10T00:25:43;13.30;;;11.90;;
1471;SDS011;963;42.644;23.336;2023-06-10T00:28:09;13.60;;;11.77;;
1471;SDS011;963;42.644;23.336;2023-06-10T00:30:34;13.27;;;11.40;;
1471;SDS011;963;42.644;23.336;2023-06-10T00:32:59;12.47;;;10.43;;
1471;SDS011;963;42.644;23.336;2023-06-10T00:35:25;12.73;;;10.37;;
1471;SDS011;963;42.644;23.336;2023-06-10T00:37:50;10.33;;;9.33;;
1471;SDS011;963;42.644;23.336;2023-06-10T00:40:16;10.77;;;8.87;;
1471;SDS011;963;42.644;23.336;2023-06-10T00:42:41;10.10;;;9.10;;
1471;SDS011;963;42.644;23.336;2023-06-10T00:45:07;9.77;;;8.43;;
1471;SDS011;963;42.644;23.336;2023-06-10T00:47:32;9.80;;;8.00;;
1471;SDS011;963;42.644;23.336;2023-06-10T00:50:00;9.03;;;7.30;;
1471;SDS011;963;42.644;23.336;2023-06-10T00:52:27;8.70;;;7.47;;
1471;SDS011;963;42.644;23.336;2023-06-10T00:54:55;7.97;;;7.17;;
1471;SDS011;963;42.644;23.336;2023-06-10T00:57:20;10.43;;;7.43;;
1471;SDS011;963;42.644;23.336;2023-06-10T00:59:49;11.53;;;8.37;;
1471;SDS011;963;42.644;23.336;2023-06-10T01:02:14;10.10;;;8.67;;
1471;SDS011;963;42.644;23.336;2023-06-10T01:04:40;9.67;;;7.80;;
1471;SDS011;963;42.644;23.336;2023-06-10T01:09:48;10.43;;;9.30;;
1471;SDS011;963;42.644;23.336;2023-06-10T01:12:23;11.33;;;10.07;;
1471;SDS011;963;42.644;23.336;2023-06-10T01:14:56;11.00;;;9.87;;
1471;SDS011;963;42.644;23.336;2023-06-10T01:17:22;10.97;;;9.87;;
1471;SDS011;963;42.644;23.336;2023-06-10T01:19:55;10.47;;;9.40;;
1471;SDS011;963;42.644;23.336;2023-06-10T01:22:25;10.53;;;9.33;;
1471;SDS011;963;42.644;23.336;2023-06-10T01:24:53;13.23;;;10.30;;
1471;SDS011;963;42.644;23.336;2023-06-10T01:27:23;12.60;;;10.47;;
1471;SDS011;963;42.644;23.336;2023-06-10T01:30:04;11.67;;;9.93;;
1471;SDS011;963;42.644;23.336;2023-06-10T01:32:43;11.20;;;9.30;;
1471;SDS011;963;42.644;23.336;2023-06-10T01:35:13;11.97;;;8.97;;
1471;SDS011;963;42.644;23.336;2023-06-10T01:37:39;11.83;;;9.97;;
1471;SDS011;963;42.644;23.336;2023-06-10T01:40:08;11.00;;;9.60;;
1471;SDS011;963;42.644;23.336;2023-06-10T01:42:34;11.43;;;10.23;;
1471;SDS011;963;42.644;23.336;2023-06-10T01:45:00;13.60;;;9.97;;
1471;SDS011;963;42.644;23.336;2023-06-10T01:47:25;10.00;;;9.00;;
1471;SDS011;963;42.644;23.336;2023-06-10T01:49:51;12.10;;;9.57;;
1471;SDS011;963;42.644;23.336;2023-06-10T01:52:16;10.43;;;9.30;;
1471;SDS011;963;42.644;23.336;2023-06-10T01:54:42;12.20;;;9.00;;
1471;SDS011;963;42.644;23.336;2023-06-10T01:57:08;12.07;;;9.70;;
1471;SDS011;963;42.644;23.336;2023-06-10T01:59:33;11.70;;;8.57;;
1471;SDS011;963;42.644;23.336;2023-06-10T02:01:59;10.80;;;8.70;;
1471;SDS011;963;42.644;23.336;2023-06-10T02:04:24;9.57;;;8.63;;
1471;SDS011;963;42.644;23.336;2023-06-10T02:06:50;10.00;;;9.00;;
1471;SDS011;963;42.644;23.336;2023-06-10T02:09:15;10.07;;;8.40;;
1471;SDS011;963;42.644;23.336;2023-06-10T02:11:41;10.30;;;9.20;;
1471;SDS011;963;42.644;23.336;2023-06-10T02:14:06;10.13;;;8.80;;
1471;SDS011;963;42.644;23.336;2023-06-10T02:16:31;10.47;;;9.30;;
1471;SDS011;963;42.644;23.336;2023-06-10T02:18:57;13.20;;;9.73;;
1471;SDS011;963;42.644;23.336;2023-06-10T02:21:22;10.37;;;9.20;;
1471;SDS011;963;42.644;23.336;2023-06-10T02:23:48;11.63;;;9.63;;
1471;SDS011;963;42.644;23.336;2023-06-10T02:26:13;10.80;;;8.70;;
1471;SDS011;963;42.644;23.336;2023-06-10T02:28:42;9.47;;;8.40;;
1471;SDS011;963;42.644;23.336;2023-06-10T02:31:07;12.43;;;7.77;;
1471;SDS011;963;42.644;23.336;2023-06-10T02:33:33;8.63;;;7.37;;
1471;SDS011;963;42.644;23.336;2023-06-10T02:35:58;9.30;;;6.87;;
1471;SDS011;963;42.644;23.336;2023-06-10T02:38:24;7.70;;;6.80;;
1471;SDS011;963;42.644;23.336;2023-06-10T02:40:49;8.90;;;7.40;;
1471;SDS011;963;42.644;23.336;2023-06-10T02:43:15;10.90;;;7.70;;
1471;SDS011;963;42.644;23.336;2023-06-10T02:45:40;9.73;;;7.27;;
1471;SDS011;963;42.644;23.336;2023-06-10T02:48:06;8.83;;;6.67;;
1471;SDS011;963;42.644;23.336;2023-06-10T02:50:31;10.27;;;7.20;;
1471;SDS011;963;42.644;23.336;2023-06-10T02:52:56;8.93;;;7.20;;
1471;SDS011;963;42.644;23.336;2023-06-10T02:55:22;9.00;;;6.60;;
1471;SDS011;963;42.644;23.336;2023-06-10T02:57:51;8.63;;;6.50;;
1471;SDS011;963;42.644;23.336;2023-06-10T03:00:17;6.50;;;5.90;;
1471;SDS011;963;42.644;23.336;2023-06-10T03:02:45;7.30;;;6.20;;
1471;SDS011;963;42.644;23.336;2023-06-10T03:05:10;6.23;;;5.63;;
1471;SDS011;963;42.644;23.336;2023-06-10T03:07:38;8.23;;;5.40;;
1471;SDS011;963;42.644;23.336;2023-06-10T03:10:04;8.20;;;5.53;;
1471;SDS011;963;42.644;23.336;2023-06-10T03:12:31;8.07;;;5.70;;
1471;SDS011;963;42.644;23.336;2023-06-10T03:14:56;6.50;;;5.77;;
1471;SDS011;963;42.644;23.336;2023-06-10T03:17:22;7.23;;;6.43;;
1471;SDS011;963;42.644;23.336;2023-06-10T03:19:47;7.53;;;6.20;;
1471;SDS011;963;42.644;23.336;2023-06-10T03:22:13;9.70;;;6.60;;
1471;SDS011;963;42.644;23.336;2023-06-10T03:24:40;8.77;;;7.20;;
1471;SDS011;963;42.644;23.336;2023-06-10T03:27:09;10.37;;;7.97;;
1471;SDS011;963;42.644;23.336;2023-06-10T03:29:36;11.20;;;8.60;;
1471;SDS011;963;42.644;23.336;2023-06-10T03:32:02;9.50;;;7.57;;
1471;SDS011;963;42.644;23.336;2023-06-10T03:34:28;10.20;;;7.60;;
1471;SDS011;963;42.644;23.336;2023-06-10T03:36:54;10.27;;;7.77;;
1471;SDS011;963;42.644;23.336;2023-06-10T03:39:20;11.80;;;8.37;;
1471;SDS011;963;42.644;23.336;2023-06-10T03:41:46;11.20;;;9.00;;
1471;SDS011;963;42.644;23.336;2023-06-10T03:44:11;10.40;;;9.30;;
1471;SDS011;963;42.644;23.336;2023-06-10T03:46:36;14.00;;;9.50;;
1471;SDS011;963;42.644;23.336;2023-06-10T03:49:02;9.90;;;8.90;;
1471;SDS011;963;42.644;23.336;2023-06-10T03:51:28;12.23;;;10.20;;
1471;SDS011;963;42.644;23.336;2023-06-10T03:53:54;10.70;;;9.60;;
1471;SDS011;963;42.644;23.336;2023-06-10T03:56:19;12.63;;;9.57;;
1471;SDS011;963;42.644;23.336;2023-06-10T03:58:44;12.93;;;10.13;;
1471;SDS011;963;42.644;23.336;2023-06-10T04:01:10;14.57;;;10.20;;
1471;SDS011;963;42.644;23.336;2023-06-10T04:03:35;12.23;;;10.27;;
1471;SDS011;963;42.644;23.336;2023-06-10T04:06:01;15.07;;;10.73;;
1471;SDS011;963;42.644;23.336;2023-06-10T04:08:27;11.23;;;10.00;;
1471;SDS011;963;42.644;23.336;2023-06-10T04:10:53;12.63;;;10.50;;
1471;SDS011;963;42.644;23.336;2023-06-10T04:13:18;14.07;;;10.57;;
1471;SDS011;963;42.644;23.336;2023-06-10T04:15:44;12.27;;;10.97;;
1471;SDS011;963;42.644;23.336;2023-06-10T04:18:10;14.03;;;11.23;;
1471;SDS011;963;42.644;23.336;2023-06-10T04:20:35;12.40;;;10.30;;
1471;SDS011;963;42.644;23.336;2023-06-10T04:23:01;12.07;;;10.70;;
1471;SDS011;963;42.644;23.336;2023-06-10T04:25:26;13.37;;;11.13;;
1471;SDS011;963;42.644;23.336;2023-06-10T04:27:53;15.30;;;10.80;;
1471;SDS011;963;42.644;23.336;2023-06-10T04:30:19;14.00;;;12.57;;
1471;SDS011;963;42.644;23.336;2023-06-10T04:32:44;14.87;;;12.83;;
1471;SDS011;963;42.644;23.336;2023-06-10T04:35:13;16.60;;;11.17;;
1471;SDS011;963;42.644;23.336;2023-06-10T04:37:41;15.53;;;11.10;;
1471;SDS011;963;42.644;23.336;2023-06-10T04:40:07;13.83;;;11.97;;
1471;SDS011;963;42.644;23.336;2023-06-10T04:42:33;12.77;;;11.43;;
1471;SDS011;963;42.644;23.336;2023-06-10T04:44:59;16.93;;;12.20;;
1471;SDS011;963;42.644;23.336;2023-06-10T04:47:25;14.03;;;12.60;;
1471;SDS011;963;42.644;23.336;2023-06-10T04:49:51;13.83;;;12.07;;
1471;SDS011;963;42.644;23.336;2023-06-10T04:52:16;13.80;;;12.13;;
1471;SDS011;963;42.644;23.336;2023-06-10T04:54:42;13.87;;;12.20;;
1471;SDS011;963;42.644;23.336;2023-06-10T04:57:08;13.30;;;11.47;;
1471;SDS011;963;42.644;23.336;2023-06-10T04:59:33;13.70;;;12.20;;
1471;SDS011;963;42.644;23.336;2023-06-10T05:02:02;12.90;;;11.60;;
1471;SDS011;963;42.644;23.336;2023-06-10T05:04:28;14.60;;;12.13;;
1471;SDS011;963;42.644;23.336;2023-06-10T05:06:54;13.87;;;12.30;;
1471;SDS011;963;42.644;23.336;2023-06-10T05:09:20;14.00;;;12.50;;
1471;SDS011;963;42.644;23.336;2023-06-10T05:11:46;14.00;;;12.60;;
1471;SDS011;963;42.644;23.336;2023-06-10T05:14:11;15.20;;;12.10;;
1471;SDS011;963;42.644;23.336;2023-06-10T05:16:37;14.00;;;12.50;;
1471;SDS011;963;42.644;23.336;2023-06-10T05:19:03;16.90;;;12.10;;
1471;SDS011;963;42.644;23.336;2023-06-10T05:21:29;13.73;;;12.27;;
1471;SDS011;963;42.644;23.336;2023-06-10T05:23:54;14.30;;;12.13;;
1471;SDS011;963;42.644;23.336;2023-06-10T05:26:20;14.43;;;12.40;;
1471;SDS011;963;42.644;23.336;2023-06-10T05:28:46;17.60;;;13.00;;
1471;SDS011;963;42.644;23.336;2023-06-10T05:31:12;13.60;;;11.90;;
1471;SDS011;963;42.644;23.336;2023-06-10T05:33:37;20.53;;;13.30;;
1471;SDS011;963;42.644;23.336;2023-06-10T05:36:03;13.50;;;12.10;;
1471;SDS011;963;42.644;23.336;2023-06-10T05:38:28;18.20;;;12.93;;
1471;SDS011;963;42.644;23.336;2023-06-10T05:40:54;13.90;;;11.77;;
1471;SDS011;963;42.644;23.336;2023-06-10T05:43:21;15.33;;;12.47;;
1471;SDS011;963;42.644;23.336;2023-06-10T05:45:47;13.90;;;12.53;;
1471;SDS011;963;42.644;23.336;2023-06-10T05:48:12;14.87;;;12.20;;
1471;SDS011;963;42.644;23.336;2023-06-10T05:50:39;15.10;;;13.50;;
1471;SDS011;963;42.644;23.336;2023-06-10T05:53:07;14.00;;;12.60;;
1471;SDS011;963;42.644;23.336;2023-06-10T05:55:39;16.10;;;12.33;;
1471;SDS011;963;42.644;23.336;2023-06-10T05:58:05;14.80;;;13.30;;
1471;SDS011;963;42.644;23.336;2023-06-10T06:00:31;16.73;;;14.30;;
1471;SDS011;963;42.644;23.336;2023-06-10T06:02:56;15.87;;;13.37;;
1471;SDS011;963;42.644;23.336;2023-06-10T06:05:22;14.90;;;11.97;;
1471;SDS011;963;42.644;23.336;2023-06-10T06:07:47;18.87;;;12.77;;
1471;SDS011;963;42.644;23.336;2023-06-10T06:10:13;14.90;;;12.20;;
1471;SDS011;963;42.644;23.336;2023-06-10T06:12:38;13.30;;;11.90;;
1471;SDS011;963;42.644;23.336;2023-06-10T06:15:04;17.83;;;13.37;;
1471;SDS011;963;42.644;23.336;2023-06-10T06:17:30;14.80;;;13.00;;
1471;SDS011;963;42.644;23.336;2023-06-10T06:19:55;13.40;;;11.50;;
1471;SDS011;963;42.644;23.336;2023-06-10T06:22:20;12.87;;;11.57;;
1471;SDS011;963;42.644;23.336;2023-06-10T06:24:47;16.03;;;12.33;;
1471;SDS011;963;42.644;23.336;2023-06-10T06:27:12;18.50;;;12.43;;
1471;SDS011;963;42.644;23.336;2023-06-10T06:29:37;16.77;;;13.53;;
1471;SDS011;963;42.644;23.336;2023-06-10T06:32:03;13.70;;;12.30;;
1471;SDS011;963;42.644;23.336;2023-06-10T06:34:29;15.97;;;12.67;;
1471;SDS011;963;42.644;23.336;2023-06-10T06:36:54;16.67;;;14.97;;
1471;SDS011;963;42.644;23.336;2023-06-10T06:39:19;15.40;;;13.80;;
1471;SDS011;963;42.644;23.336;2023-06-10T06:41:45;15.90;;;12.50;;
1471;SDS011;963;42.644;23.336;2023-06-10T06:44:10;15.23;;;13.17;;
1471;SDS011;963;42.644;23.336;2023-06-10T06:46:36;12.47;;;11.27;;
1471;SDS011;963;42.644;23.336;2023-06-10T06:49:01;13.30;;;11.90;;
1471;SDS011;963;42.644;23.336;2023-06-10T06:51:26;12.17;;;10.30;;
1471;SDS011;963;42.644;23.336;2023-06-10T06:53:52;12.30;;;10.07;;
1471;SDS011;963;42.644;23.336;2023-06-10T06:56:19;11.33;;;10.07;;
1471;SDS011;963;42.644;23.336;2023-06-10T06:58:46;11.07;;;9.13;;
1471;SDS011;963;42.644;23.336;2023-06-10T07:01:11;9.60;;;8.07;;
1471;SDS011;963;42.644;23.336;2023-06-10T07:03:37;12.90;;;8.97;;
1471;SDS011;963;42.644;23.336;2023-06-10T07:06:02;12.20;;;8.70;;
1471;SDS011;963;42.644;23.336;2023-06-10T07:08:28;13.13;;;8.30;;
1471;SDS011;963;42.644;23.336;2023-06-10T07:10:53;11.20;;;7.10;;
1471;SDS011;963;42.644;23.336;2023-06-10T07:13:19;8.20;;;6.80;;
1471;SDS011;963;42.644;23.336;2023-06-10T07:15:45;7.67;;;6.87;;
1471;SDS011;963;42.644;23.336;2023-06-10T07:18:10;8.63;;;6.83;;
1471;SDS011;963;42.644;23.336;2023-06-10T07:20:35;9.07;;;7.07;;
1471;SDS011;963;42.644;23.336;2023-06-10T07:23:01;8.87;;;6.80;;
1471;SDS011;963;42.644;23.336;2023-06-10T07:25:26;9.97;;;8.00;;
1471;SDS011;963;42.644;23.336;2023-06-10T07:27:52;9.00;;;7.80;;
1471;SDS011;963;42.644;23.336;2023-06-10T07:30:17;10.50;;;8.03;;
1471;SDS011;963;42.644;23.336;2023-06-10T07:32:43;10.93;;;8.40;;
1471;SDS011;963;42.644;23.336;2023-06-10T07:35:09;11.60;;;7.67;;
1471;SDS011;963;42.644;23.336;2023-06-10T07:37:36;11.73;;;8.23;;
1471;SDS011;963;42.644;23.336;2023-06-10T07:40:01;10.20;;;7.17;;
1471;SDS011;963;42.644;23.336;2023-06-10T07:42:27;9.10;;;6.97;;
1471;SDS011;963;42.644;23.336;2023-06-10T07:44:53;10.17;;;6.70;;
1471;SDS011;963;42.644;23.336;2023-06-10T07:47:18;7.30;;;6.20;;
1471;SDS011;963;42.644;23.336;2023-06-10T07:49:43;6.70;;;5.67;;
1471;SDS011;963;42.644;23.336;2023-06-10T07:52:09;10.50;;;8.10;;
1471;SDS011;963;42.644;23.336;2023-06-10T07:54:34;8.23;;;6.80;;
1471;SDS011;963;42.644;23.336;2023-06-10T07:57:00;8.13;;;5.50;;
1471;SDS011;963;42.644;23.336;2023-06-10T07:59:25;8.43;;;6.20;;
1471;SDS011;963;42.644;23.336;2023-06-10T08:01:51;7.10;;;5.70;;
1471;SDS011;963;42.644;23.336;2023-06-10T08:04:17;9.17;;;5.50;;
1471;SDS011;963;42.644;23.336;2023-06-10T08:06:43;9.50;;;6.23;;
1471;SDS011;963;42.644;23.336;2023-06-10T08:09:08;5.60;;;5.00;;
1471;SDS011;963;42.644;23.336;2023-06-10T08:11:33;6.97;;;4.70;;
1471;SDS011;963;42.644;23.336;2023-06-10T08:13:59;11.20;;;6.03;;
1471;SDS011;963;42.644;23.336;2023-06-10T08:16:24;8.77;;;5.50;;
1471;SDS011;963;42.644;23.336;2023-06-10T08:18:50;6.63;;;5.80;;
1471;SDS011;963;42.644;23.336;2023-06-10T08:21:15;6.00;;;5.40;;
1471;SDS011;963;42.644;23.336;2023-06-10T08:23:41;8.20;;;4.90;;
1471;SDS011;963;42.644;23.336;2023-06-10T08:26:06;7.20;;;5.90;;
1471;SDS011;963;42.644;23.336;2023-06-10T08:28:31;9.10;;;5.60;;
1471;SDS011;963;42.644;23.336;2023-06-10T08:30:57;6.00;;;4.50;;
1471;SDS011;963;42.644;23.336;2023-06-10T08:33:22;7.40;;;5.00;;
1471;SDS011;963;42.644;23.336;2023-06-10T08:35:47;5.47;;;4.80;;
1471;SDS011;963;42.644;23.336;2023-06-10T08:38:13;5.80;;;5.20;;
1471;SDS011;963;42.644;23.336;2023-06-10T08:40:39;9.13;;;5.60;;
1471;SDS011;963;42.644;23.336;2023-06-10T08:43:08;6.60;;;4.53;;
1471;SDS011;963;42.644;23.336;2023-06-10T08:45:42;13.23;;;4.80;;
1471;SDS011;963;42.644;23.336;2023-06-10T08:48:11;5.40;;;4.70;;
1471;SDS011;963;42.644;23.336;2023-06-10T08:50:39;4.77;;;3.53;;
1471;SDS011;963;42.644;23.336;2023-06-10T08:53:07;5.70;;;4.43;;
1471;SDS011;963;42.644;23.336;2023-06-10T08:55:36;4.20;;;3.40;;
1471;SDS011;963;42.644;23.336;2023-06-10T08:58:03;5.87;;;4.40;;
1471;SDS011;963;42.644;23.336;2023-06-10T09:00:29;4.23;;;3.83;;
1471;SDS011;963;42.644;23.336;2023-06-10T09:02:56;8.47;;;5.93;;
1471;SDS011;963;42.644;23.336;2023-06-10T09:05:22;6.40;;;5.00;;
1471;SDS011;963;42.644;23.336;2023-06-10T09:07:48;8.33;;;4.53;;
1471;SDS011;963;42.644;23.336;2023-06-10T09:10:14;10.43;;;4.60;;
1471;SDS011;963;42.644;23.336;2023-06-10T09:12:40;7.37;;;5.20;;
1471;SDS011;963;42.644;23.336;2023-06-10T09:15:06;6.53;;;4.50;;
1471;SDS011;963;42.644;23.336;2023-06-10T09:17:32;10.20;;;5.77;;
1471;SDS011;963;42.644;23.336;2023-06-10T09:19:59;6.40;;;4.57;;
1471;SDS011;963;42.644;23.336;2023-06-10T09:22:24;8.37;;;4.30;;
1471;SDS011;963;42.644;23.336;2023-06-10T09:24:52;4.87;;;4.10;;
1471;SDS011;963;42.644;23.336;2023-06-10T09:27:29;7.20;;;4.37;;
1471;SDS011;963;42.644;23.336;2023-06-10T09:29:56;4.57;;;3.93;;
1471;SDS011;963;42.644;23.336;2023-06-10T09:32:23;6.23;;;4.10;;
1471;SDS011;963;42.644;23.336;2023-06-10T09:34:49;6.37;;;3.70;;
1471;SDS011;963;42.644;23.336;2023-06-10T09:37:22;8.43;;;3.70;;
1471;SDS011;963;42.644;23.336;2023-06-10T09:40:07;8.23;;;4.27;;
1471;SDS011;963;42.644;23.336;2023-06-10T09:42:35;13.10;;;5.40;;
1471;SDS011;963;42.644;23.336;2023-06-10T09:45:05;5.97;;;4.30;;
1471;SDS011;963;42.644;23.336;2023-06-10T09:47:31;4.80;;;3.67;;
1471;SDS011;963;42.644;23.336;2023-06-10T09:49:57;7.07;;;4.23;;
1471;SDS011;963;42.644;23.336;2023-06-10T09:52:23;6.83;;;3.83;;
1471;SDS011;963;42.644;23.336;2023-06-10T09:54:49;6.33;;;4.17;;
1471;SDS011;963;42.644;23.336;2023-06-10T09:57:16;10.70;;;4.40;;
1471;SDS011;963;42.644;23.336;2023-06-10T09:59:42;7.23;;;4.50;;
1471;SDS011;963;42.644;23.336;2023-06-10T10:02:13;4.40;;;3.57;;
1471;SDS011;963;42.644;23.336;2023-06-10T10:04:39;6.17;;;3.40;;
1471;SDS011;963;42.644;23.336;2023-06-10T10:07:04;4.53;;;3.73;;
1471;SDS011;963;42.644;23.336;2023-06-10T10:09:32;4.93;;;4.00;;
1471;SDS011;963;42.644;23.336;2023-06-10T10:11:57;6.30;;;3.70;;
1471;SDS011;963;42.644;23.336;2023-06-10T10:14:25;6.83;;;3.80;;
1471;SDS011;963;42.644;23.336;2023-06-10T10:16:53;5.23;;;4.20;;
1471;SDS011;963;42.644;23.336;2023-06-10T10:19:25;4.33;;;3.60;;
1471;SDS011;963;42.644;23.336;2023-06-10T10:22:00;4.83;;;3.77;;
1471;SDS011;963;42.644;23.336;2023-06-10T10:25:02;5.47;;;3.90;;
1471;SDS011;963;42.644;23.336;2023-06-10T10:27:44;13.10;;;5.27;;
1471;SDS011;963;42.644;23.336;2023-06-10T10:30:08;5.77;;;3.63;;
1471;SDS011;963;42.644;23.336;2023-06-10T10:32:50;6.83;;;4.50;;
1471;SDS011;963;42.644;23.336;2023-06-10T10:35:21;4.60;;;3.47;;
1471;SDS011;963;42.644;23.336;2023-06-10T10:37:49;3.87;;;3.10;;
1471;SDS011;963;42.644;23.336;2023-06-10T10:40:17;5.83;;;3.30;;
1471;SDS011;963;42.644;23.336;2023-06-10T10:42:42;4.40;;;3.50;;
1471;SDS011;963;42.644;23.336;2023-06-10T10:45:08;3.40;;;3.03;;
1471;SDS011;963;42.644;23.336;2023-06-10T10:47:34;3.83;;;3.10;;
1471;SDS011;963;42.644;23.336;2023-06-10T10:50:12;5.70;;;3.57;;
1471;SDS011;963;42.644;23.336;2023-06-10T10:52:46;4.60;;;3.57;;
1471;SDS011;963;42.644;23.336;2023-06-10T10:55:13;7.70;;;4.10;;
1471;SDS011;963;42.644;23.336;2023-06-10T10:57:38;4.93;;;3.77;;
1471;SDS011;963;42.644;23.336;2023-06-10T11:00:04;6.13;;;3.90;;
1471;SDS011;963;42.644;23.336;2023-06-10T11:02:37;4.40;;;3.83;;
1471;SDS011;963;42.644;23.336;2023-06-10T11:05:08;6.57;;;3.70;;
1471;SDS011;963;42.644;23.336;2023-06-10T11:07:35;5.60;;;3.83;;
1471;SDS011;963;42.644;23.336;2023-06-10T11:10:02;4.93;;;3.20;;
1471;SDS011;963;42.644;23.336;2023-06-10T11:12:42;4.47;;;3.90;;
1471;SDS011;963;42.644;23.336;2023-06-10T11:15:07;39.17;;;31.60;;
1471;SDS011;963;42.644;23.336;2023-06-10T11:17:33;8.83;;;6.70;;
1471;SDS011;963;42.644;23.336;2023-06-10T11:19:59;5.80;;;4.57;;
1471;SDS011;963;42.644;23.336;2023-06-10T11:22:25;8.07;;;4.60;;
1471;SDS011;963;42.644;23.336;2023-06-10T11:24:50;7.97;;;4.57;;
1471;SDS011;963;42.644;23.336;2023-06-10T11:30:27;7.50;;;4.67;;
1471;SDS011;963;42.644;23.336;2023-06-10T11:32:34;7.23;;;4.90;;
1471;SDS011;963;42.644;23.336;2023-06-10T11:35:03;9.00;;;4.67;;
1471;SDS011;963;42.644;23.336;2023-06-10T11:37:29;6.63;;;3.60;;
1471;SDS011;963;42.644;23.336;2023-06-10T11:39:55;7.60;;;4.50;;
1471;SDS011;963;42.644;23.336;2023-06-10T11:42:24;5.97;;;3.53;;
1471;SDS011;963;42.644;23.336;2023-06-10T11:44:50;7.07;;;4.10;;
1471;SDS011;963;42.644;23.336;2023-06-10T11:47:17;3.93;;;3.53;;
1471;SDS011;963;42.644;23.336;2023-06-10T11:49:44;5.53;;;3.97;;
1471;SDS011;963;42.644;23.336;2023-06-10T11:52:10;4.40;;;4.00;;
1471;SDS011;963;42.644;23.336;2023-06-10T11:54:36;5.43;;;4.20;;
1471;SDS011;963;42.644;23.336;2023-06-10T11:57:02;5.83;;;4.17;;
1471;SDS011;963;42.644;23.336;2023-06-10T11:59:33;4.97;;;3.63;;
1471;SDS011;963;42.644;23.336;2023-06-10T12:01:58;9.50;;;4.10;;
1471;SDS011;963;42.644;23.336;2023-06-10T12:04:24;4.50;;;3.30;;
1471;SDS011;963;42.644;23.336;2023-06-10T12:06:51;4.80;;;4.23;;
1471;SDS011;963;42.644;23.336;2023-06-10T12:09:28;4.73;;;4.20;;
1471;SDS011;963;42.644;23.336;2023-06-10T12:11:57;5.93;;;4.77;;
1471;SDS011;963;42.644;23.336;2023-06-10T12:20:01;8.50;;;4.60;;
1471;SDS011;963;42.644;23.336;2023-06-10T12:22:36;6.73;;;4.80;;
1471;SDS011;963;42.644;23.336;2023-06-10T12:25:08;6.87;;;4.80;;
1471;SDS011;963;42.644;23.336;2023-06-10T12:27:35;5.03;;;4.00;;
1471;SDS011;963;42.644;23.336;2023-06-10T12:30:02;7.77;;;4.20;;
1471;SDS011;963;42.644;23.336;2023-06-10T12:32:45;6.93;;;6.17;;
1471;SDS011;963;42.644;23.336;2023-06-10T12:35:12;4.60;;;4.13;;
1471;SDS011;963;42.644;23.336;2023-06-10T12:37:42;6.40;;;3.50;;
1471;SDS011;963;42.644;23.336;2023-06-10T12:40:25;4.43;;;2.80;;
1471;SDS011;963;42.644;23.336;2023-06-10T12:42:52;5.77;;;4.10;;
1471;SDS011;963;42.644;23.336;2023-06-10T12:45:34;5.13;;;3.80;;
1471;SDS011;963;42.644;23.336;2023-06-10T12:48:34;5.53;;;4.20;;
1471;SDS011;963;42.644;23.336;2023-06-10T12:50:55;10.60;;;4.83;;
1471;SDS011;963;42.644;23.336;2023-06-10T12:53:21;4.83;;;3.70;;
1471;SDS011;963;42.644;23.336;2023-06-10T12:55:54;7.67;;;3.97;;
1471;SDS011;963;42.644;23.336;2023-06-10T12:58:20;5.60;;;3.73;;
1471;SDS011;963;42.644;23.336;2023-06-10T13:00:47;9.40;;;3.60;;
1471;SDS011;963;42.644;23.336;2023-06-10T13:03:13;4.70;;;4.10;;
1471;SDS011;963;42.644;23.336;2023-06-10T13:05:39;6.20;;;3.90;;
1471;SDS011;963;42.644;23.336;2023-06-10T13:08:06;7.07;;;5.00;;
1471;SDS011;963;42.644;23.336;2023-06-10T13:10:32;4.17;;;3.47;;
1471;SDS011;963;42.644;23.336;2023-06-10T13:12:57;9.60;;;4.20;;
1471;SDS011;963;42.644;23.336;2023-06-10T13:15:24;4.87;;;3.87;;
1471;SDS011;963;42.644;23.336;2023-06-10T13:17:51;4.33;;;3.90;;
1471;SDS011;963;42.644;23.336;2023-06-10T13:20:17;7.23;;;3.97;;
1471;SDS011;963;42.644;23.336;2023-06-10T13:22:42;9.93;;;4.13;;
1471;SDS011;963;42.644;23.336;2023-06-10T13:25:08;10.40;;;4.47;;
1471;SDS011;963;42.644;23.336;2023-06-10T13:27:34;5.20;;;4.10;;
1471;SDS011;963;42.644;23.336;2023-06-10T13:30:04;10.23;;;4.17;;
1471;SDS011;963;42.644;23.336;2023-06-10T13:32:30;7.60;;;4.20;;
1471;SDS011;963;42.644;23.336;2023-06-10T13:34:56;5.27;;;3.80;;
1471;SDS011;963;42.644;23.336;2023-06-10T13:37:22;6.77;;;3.80;;
1471;SDS011;963;42.644;23.336;2023-06-10T13:39:47;4.73;;;3.87;;
1471;SDS011;963;42.644;23.336;2023-06-10T13:42:15;4.33;;;3.43;;
1471;SDS011;963;42.644;23.336;2023-06-10T13:44:41;4.33;;;3.87;;
1471;SDS011;963;42.644;23.336;2023-06-10T13:47:06;12.83;;;4.07;;
1471;SDS011;963;42.644;23.336;2023-06-10T13:49:32;6.13;;;3.90;;
1471;SDS011;963;42.644;23.336;2023-06-10T13:51:57;7.30;;;3.77;;
1471;SDS011;963;42.644;23.336;2023-06-10T13:54:23;5.20;;;3.70;;
1471;SDS011;963;42.644;23.336;2023-06-10T13:56:48;5.93;;;4.20;;
1471;SDS011;963;42.644;23.336;2023-06-10T13:59:14;5.27;;;4.00;;
1471;SDS011;963;42.644;23.336;2023-06-10T14:01:39;5.30;;;3.87;;
1471;SDS011;963;42.644;23.336;2023-06-10T14:04:05;5.63;;;3.73;;
1471;SDS011;963;42.644;23.336;2023-06-10T14:06:31;4.30;;;3.77;;
1471;SDS011;963;42.644;23.336;2023-06-10T14:08:58;5.00;;;4.00;;
1471;SDS011;963;42.644;23.336;2023-06-10T14:11:23;5.67;;;4.10;;
1471;SDS011;963;42.644;23.336;2023-06-10T14:13:49;7.43;;;4.10;;
1471;SDS011;963;42.644;23.336;2023-06-10T14:16:14;5.13;;;4.63;;
1471;SDS011;963;42.644;23.336;2023-06-10T14:18:40;5.00;;;3.90;;
1471;SDS011;963;42.644;23.336;2023-06-10T14:21:05;6.33;;;4.37;;
1471;SDS011;963;42.644;23.336;2023-06-10T14:23:30;6.20;;;4.30;;
1471;SDS011;963;42.644;23.336;2023-06-10T14:25:56;5.40;;;4.00;;
1471;SDS011;963;42.644;23.336;2023-06-10T14:28:21;4.30;;;3.90;;
1471;SDS011;963;42.644;23.336;2023-06-10T14:30:48;4.03;;;3.47;;
1471;SDS011;963;42.644;23.336;2023-06-10T14:33:14;5.20;;;4.23;;
1471;SDS011;963;42.644;23.336;2023-06-10T14:35:40;4.33;;;3.83;;
1471;SDS011;963;42.644;23.336;2023-06-10T14:38:05;6.13;;;4.20;;
1471;SDS011;963;42.644;23.336;2023-06-10T14:40:30;11.43;;;4.43;;
1471;SDS011;963;42.644;23.336;2023-06-10T14:42:56;4.50;;;3.97;;
1471;SDS011;963;42.644;23.336;2023-06-10T14:45:22;4.40;;;4.00;;
1471;SDS011;963;42.644;23.336;2023-06-10T14:47:47;5.97;;;4.20;;
1471;SDS011;963;42.644;23.336;2023-06-10T14:50:13;5.27;;;3.50;;
1471;SDS011;963;42.644;23.336;2023-06-10T14:52:39;35.77;;;31.97;;
1471;SDS011;963;42.644;23.336;2023-06-10T14:55:05;24.33;;;20.80;;
1471;SDS011;963;42.644;23.336;2023-06-10T14:57:31;41.20;;;33.13;;
1471;SDS011;963;42.644;23.336;2023-06-10T14:59:56;8.93;;;7.07;;
1471;SDS011;963;42.644;23.336;2023-06-10T15:02:22;9.40;;;4.40;;
1471;SDS011;963;42.644;23.336;2023-06-10T15:04:47;8.17;;;3.80;;
1471;SDS011;963;42.644;23.336;2023-06-10T15:07:13;4.20;;;3.80;;
1471;SDS011;963;42.644;23.336;2023-06-10T15:09:40;5.53;;;3.97;;
1471;SDS011;963;42.644;23.336;2023-06-10T15:12:06;7.57;;;4.00;;
1471;SDS011;963;42.644;23.336;2023-06-10T15:14:32;5.50;;;4.03;;